Gheens, LA (70355)

5:19 AM CST on December 27, 2014 (GMT -0600)
Sugarland Subdivision | Change Station
CLOSE
Current Station
Personal Weather Station
Location: Raceland, LA
Elevation: 10 ft
Nearby Weather Stations
Active Advisory: Areal Flood Watch

Elev 10 ft 29.70 °N, 90.57 °W | Updated 1 second ago

Rain
Rain
66.5 °F
Feels Like 66.5 °F
N
1.0
Wind Variable Wind from North
Gusts 3.0 mph

Today
High -- | Low -- °F
--% Chance of Precip.
Yesterday
High -- | Low -- °F
Precip. -- in
6:55 AM 5:10 PM
Waxing Crescent, 35% visible
Pressure 30.09 in
Visibility 7.0 miles
Clouds Overcast 700 ft
Dew Point 65 °F
Humidity 96%
Rainfall 0.29 in
Snow Depth Not available.
UV 0 out of 12
Pollen 5.10 out of 12
Air Quality Not available.
Flu Activity Not available.
METAR KHUM 271055Z AUTO 12007KT 7SM OVC007 20/19 A3009 RMK AO2 P0008 T01960190

More Conditions Fewer Conditions

Pressure 30.09 in
Visibility 7.0 miles
Clouds Overcast 700 ft
Dew Point 65 °F
Humidity 96%
Rainfall 0.29 in
Snow Depth Not available.
UV 0 out of 12
Pollen 5.10 out of 12
Air Quality Not available.
Flu Activity Not available.
METAR KHUM 271055Z AUTO 12007KT 7SM OVC007 20/19 A3009 RMK AO2 P0008 T01960190

More Conditions Fewer Conditions

10-Day Weather Forecast

Almanac

Astronomy

Dec. 27, 2014 Rise Set
Actual Time
Civil Twilight
Nautical Twilight
Astronomical Twilight
Moon
Length of Visible Light
Length of Day
Tomorrow will be .
, % of the Moon is Illuminated

Today's Extremes

State Highs State Lows

Community

WunderPhotos

Upload Photos

1,780,879 photos uploaded!

WunderBlogs® & News

Nearby

Air Quality

  Air Quality AQ Index Pollutant
Not available.

Snow Depth

Station Depth Elevation

Earthquake Activity

City Distance Mag. Time & Date
Minimum magnitude displayed is 2.5.

Coastal Water Temperatures

Place Temperature

Nearby Weather Stations